sensor_id;sensor_type;location;lat;lon;timestamp;temperature;humidity
9965;DHT22;5023;53.554;9.964;2022-09-29T00:03:33;9.30;99.90
9965;DHT22;5023;53.554;9.964;2022-09-29T00:08:35;9.40;99.90
9965;DHT22;5023;53.554;9.964;2022-09-29T00:13:38;9.30;99.90
9965;DHT22;5023;53.554;9.964;2022-09-29T00:18:40;9.30;99.90
9965;DHT22;5023;53.554;9.964;2022-09-29T00:23:43;9.30;99.90
9965;DHT22;5023;53.554;9.964;2022-09-29T00:28:48;9.30;99.90
9965;DHT22;5023;53.554;9.964;2022-09-29T00:33:52;9.30;99.90
9965;DHT22;5023;53.554;9.964;2022-09-29T00:38:55;9.20;99.90
9965;DHT22;5023;53.554;9.964;2022-09-29T00:44:00;9.30;99.90
9965;DHT22;5023;53.554;9.964;2022-09-29T00:49:08;9.30;99.90
9965;DHT22;5023;53.554;9.964;2022-09-29T00:54:11;9.30;99.90
9965;DHT22;5023;53.554;9.964;2022-09-29T00:59:19;9.20;99.90
9965;DHT22;5023;53.554;9.964;2022-09-29T01:04:24;9.20;99.90
9965;DHT22;5023;53.554;9.964;2022-09-29T01:09:29;9.20;99.90
9965;DHT22;5023;53.554;9.964;2022-09-29T01:14:34;9.20;99.90
9965;DHT22;5023;53.554;9.964;2022-09-29T01:19:49;9.10;99.90
9965;DHT22;5023;53.554;9.964;2022-09-29T01:25:07;9.20;99.90
9965;DHT22;5023;53.554;9.964;2022-09-29T01:30:18;9.20;99.90
9965;DHT22;5023;53.554;9.964;2022-09-29T01:35:28;9.20;99.90
9965;DHT22;5023;53.554;9.964;2022-09-29T01:40:37;9.20;99.90
9965;DHT22;5023;53.554;9.964;2022-09-29T01:45:49;9.20;99.90
9965;DHT22;5023;53.554;9.964;2022-09-29T01:50:56;9.10;99.90
9965;DHT22;5023;53.554;9.964;2022-09-29T01:56:04;9.20;99.90
9965;DHT22;5023;53.554;9.964;2022-09-29T02:01:12;9.20;99.90
9965;DHT22;5023;53.554;9.964;2022-09-29T02:06:20;9.20;99.90
9965;DHT22;5023;53.554;9.964;2022-09-29T02:11:25;9.20;99.90
9965;DHT22;5023;53.554;9.964;2022-09-29T02:16:30;9.20;99.90
9965;DHT22;5023;53.554;9.964;2022-09-29T02:21:33;9.10;99.90
9965;DHT22;5023;53.554;9.964;2022-09-29T02:26:39;9.10;99.90
9965;DHT22;5023;53.554;9.964;2022-09-29T02:31:41;9.10;99.90
9965;DHT22;5023;53.554;9.964;2022-09-29T02:36:52;9.10;99.90
9965;DHT22;5023;53.554;9.964;2022-09-29T02:42:05;9.10;99.90
9965;DHT22;5023;53.554;9.964;2022-09-29T02:47:30;9.10;99.90
9965;DHT22;5023;53.554;9.964;2022-09-29T02:52:45;9.00;99.90
9965;DHT22;5023;53.554;9.964;2022-09-29T02:57:52;9.00;99.90
9965;DHT22;5023;53.554;9.964;2022-09-29T03:02:56;9.00;99.90
9965;DHT22;5023;53.554;9.964;2022-09-29T03:08:00;9.00;99.90
9965;DHT22;5023;53.554;9.964;2022-09-29T03:13:02;9.00;99.90
9965;DHT22;5023;53.554;9.964;2022-09-29T03:18:07;8.90;99.90
9965;DHT22;5023;53.554;9.964;2022-09-29T03:23:11;8.90;99.90
9965;DHT22;5023;53.554;9.964;2022-09-29T03:28:13;8.90;99.90
9965;DHT22;5023;53.554;9.964;2022-09-29T03:33:16;8.90;99.90
9965;DHT22;5023;53.554;9.964;2022-09-29T03:38:22;8.90;99.90
9965;DHT22;5023;53.554;9.964;2022-09-29T03:43:24;8.90;99.90
9965;DHT22;5023;53.554;9.964;2022-09-29T03:48:29;8.90;99.90
9965;DHT22;5023;53.554;9.964;2022-09-29T03:53:35;8.80;99.90
9965;DHT22;5023;53.554;9.964;2022-09-29T03:58:37;8.70;99.90
9965;DHT22;5023;53.554;9.964;2022-09-29T04:03:39;8.80;99.90
9965;DHT22;5023;53.554;9.964;2022-09-29T04:08:43;8.70;99.90
9965;DHT22;5023;53.554;9.964;2022-09-29T04:13:45;8.80;99.90
9965;DHT22;5023;53.554;9.964;2022-09-29T04:18:47;8.80;99.90
9965;DHT22;5023;53.554;9.964;2022-09-29T04:23:51;8.80;99.90
9965;DHT22;5023;53.554;9.964;2022-09-29T04:28:52;8.80;99.90
9965;DHT22;5023;53.554;9.964;2022-09-29T04:33:56;8.80;99.90
9965;DHT22;5023;53.554;9.964;2022-09-29T04:38:59;8.90;99.90
9965;DHT22;5023;53.554;9.964;2022-09-29T04:44:02;8.80;99.90
9965;DHT22;5023;53.554;9.964;2022-09-29T04:49:05;8.70;99.90
9965;DHT22;5023;53.554;9.964;2022-09-29T04:54:09;8.80;99.90
9965;DHT22;5023;53.554;9.964;2022-09-29T04:59:11;8.80;99.90
9965;DHT22;5023;53.554;9.964;2022-09-29T05:04:15;8.90;99.90
9965;DHT22;5023;53.554;9.964;2022-09-29T05:09:18;8.90;99.90
9965;DHT22;5023;53.554;9.964;2022-09-29T05:14:20;8.90;99.90
9965;DHT22;5023;53.554;9.964;2022-09-29T05:19:22;8.90;99.90
9965;DHT22;5023;53.554;9.964;2022-09-29T05:24:26;8.90;99.90
9965;DHT22;5023;53.554;9.964;2022-09-29T05:29:28;8.90;99.90
9965;DHT22;5023;53.554;9.964;2022-09-29T05:34:30;8.90;99.90
9965;DHT22;5023;53.554;9.964;2022-09-29T05:39:34;8.90;99.90
9965;DHT22;5023;53.554;9.964;2022-09-29T05:44:37;8.90;99.90
9965;DHT22;5023;53.554;9.964;2022-09-29T05:49:39;8.90;99.90
9965;DHT22;5023;53.554;9.964;2022-09-29T05:54:43;8.90;99.90
9965;DHT22;5023;53.554;9.964;2022-09-29T05:59:45;8.80;99.90
9965;DHT22;5023;53.554;9.964;2022-09-29T06:04:48;8.90;99.90
9965;DHT22;5023;53.554;9.964;2022-09-29T06:09:51;9.10;99.90
9965;DHT22;5023;53.554;9.964;2022-09-29T06:14:53;9.10;99.90
9965;DHT22;5023;53.554;9.964;2022-09-29T06:19:55;9.10;99.90
9965;DHT22;5023;53.554;9.964;2022-09-29T06:24:59;9.00;99.90
9965;DHT22;5023;53.554;9.964;2022-09-29T06:30:01;9.20;99.90
9965;DHT22;5023;53.554;9.964;2022-09-29T06:35:04;9.20;99.90
9965;DHT22;5023;53.554;9.964;2022-09-29T06:40:25;9.20;99.90
9965;DHT22;5023;53.554;9.964;2022-09-29T06:45:30;9.20;99.90
9965;DHT22;5023;53.554;9.964;2022-09-29T06:50:34;9.20;99.90
9965;DHT22;5023;53.554;9.964;2022-09-29T06:55:37;9.20;99.90
9965;DHT22;5023;53.554;9.964;2022-09-29T07:00:39;9.10;99.90
9965;DHT22;5023;53.554;9.964;2022-09-29T07:05:42;9.10;99.90
9965;DHT22;5023;53.554;9.964;2022-09-29T07:10:47;9.10;99.90
9965;DHT22;5023;53.554;9.964;2022-09-29T07:15:49;9.20;99.90
9965;DHT22;5023;53.554;9.964;2022-09-29T07:20:51;9.20;99.90
9965;DHT22;5023;53.554;9.964;2022-09-29T07:25:55;9.30;99.90
9965;DHT22;5023;53.554;9.964;2022-09-29T07:30:58;9.20;99.90
9965;DHT22;5023;53.554;9.964;2022-09-29T07:36:01;9.20;99.90
9965;DHT22;5023;53.554;9.964;2022-09-29T07:41:08;9.30;99.90
9965;DHT22;5023;53.554;9.964;2022-09-29T07:46:11;9.40;99.90
9965;DHT22;5023;53.554;9.964;2022-09-29T07:51:16;9.40;99.90
9965;DHT22;5023;53.554;9.964;2022-09-29T07:56:22;9.50;99.90
9965;DHT22;5023;53.554;9.964;2022-09-29T08:01:24;9.60;99.90
9965;DHT22;5023;53.554;9.964;2022-09-29T08:06:27;10.10;99.90
9965;DHT22;5023;53.554;9.964;2022-09-29T08:11:31;10.70;99.90
9965;DHT22;5023;53.554;9.964;2022-09-29T08:16:34;10.90;99.90
9965;DHT22;5023;53.554;9.964;2022-09-29T08:21:36;10.80;99.90
9965;DHT22;5023;53.554;9.964;2022-09-29T08:26:40;11.00;99.90
9965;DHT22;5023;53.554;9.964;2022-09-29T08:31:42;11.20;99.90
9965;DHT22;5023;53.554;9.964;2022-09-29T08:36:44;11.00;99.90
9965;DHT22;5023;53.554;9.964;2022-09-29T08:41:57;11.00;99.90
9965;DHT22;5023;53.554;9.964;2022-09-29T08:47:10;11.30;99.90
9965;DHT22;5023;53.554;9.964;2022-09-29T08:52:18;11.40;99.90
9965;DHT22;5023;53.554;9.964;2022-09-29T08:57:22;11.40;99.90
9965;DHT22;5023;53.554;9.964;2022-09-29T09:02:52;11.30;99.90
9965;DHT22;5023;53.554;9.964;2022-09-29T09:08:04;11.70;99.90
9965;DHT22;5023;53.554;9.964;2022-09-29T09:13:20;11.50;99.90
9965;DHT22;5023;53.554;9.964;2022-09-29T09:18:48;11.50;99.90
9965;DHT22;5023;53.554;9.964;2022-09-29T09:23:57;11.40;99.90
9965;DHT22;5023;53.554;9.964;2022-09-29T09:29:03;11.70;99.90
9965;DHT22;5023;53.554;9.964;2022-09-29T09:34:15;11.80;99.90
9965;DHT22;5023;53.554;9.964;2022-09-29T09:39:22;11.90;99.90
9965;DHT22;5023;53.554;9.964;2022-09-29T09:44:37;11.90;99.90
9965;DHT22;5023;53.554;9.964;2022-09-29T09:49:43;12.00;99.90
9965;DHT22;5023;53.554;9.964;2022-09-29T09:54:48;12.20;99.90
9965;DHT22;5023;53.554;9.964;2022-09-29T10:00:06;12.30;99.90
9965;DHT22;5023;53.554;9.964;2022-09-29T10:05:11;12.20;99.90
9965;DHT22;5023;53.554;9.964;2022-09-29T10:10:17;12.20;99.90
9965;DHT22;5023;53.554;9.964;2022-09-29T10:15:26;12.10;99.90
9965;DHT22;5023;53.554;9.964;2022-09-29T10:20:33;12.30;99.90
9965;DHT22;5023;53.554;9.964;2022-09-29T10:25:38;12.40;99.90
9965;DHT22;5023;53.554;9.964;2022-09-29T10:30:42;12.30;99.90
9965;DHT22;5023;53.554;9.964;2022-09-29T10:35:46;12.20;99.90
9965;DHT22;5023;53.554;9.964;2022-09-29T10:40:54;12.30;99.90
9965;DHT22;5023;53.554;9.964;2022-09-29T10:46:31;12.40;99.90
9965;DHT22;5023;53.554;9.964;2022-09-29T10:51:32;12.40;99.90
9965;DHT22;5023;53.554;9.964;2022-09-29T10:56:35;12.40;99.90
9965;DHT22;5023;53.554;9.964;2022-09-29T11:01:45;12.30;99.90
9965;DHT22;5023;53.554;9.964;2022-09-29T11:06:50;12.40;99.90
9965;DHT22;5023;53.554;9.964;2022-09-29T11:11:54;12.20;99.90
9965;DHT22;5023;53.554;9.964;2022-09-29T11:17:00;12.20;99.90
9965;DHT22;5023;53.554;9.964;2022-09-29T11:27:46;12.20;99.90
9965;DHT22;5023;53.554;9.964;2022-09-29T11:33:09;12.40;99.90
9965;DHT22;5023;53.554;9.964;2022-09-29T11:43:45;12.40;99.90
9965;DHT22;5023;53.554;9.964;2022-09-29T11:49:11;12.50;99.90
9965;DHT22;5023;53.554;9.964;2022-09-29T11:54:30;12.60;99.90
9965;DHT22;5023;53.554;9.964;2022-09-29T11:59:46;12.60;99.90
9965;DHT22;5023;53.554;9.964;2022-09-29T12:04:59;12.50;99.90
9965;DHT22;5023;53.554;9.964;2022-09-29T12:10:25;12.60;99.90
9965;DHT22;5023;53.554;9.964;2022-09-29T12:15:36;12.50;99.90
9965;DHT22;5023;53.554;9.964;2022-09-29T12:20:46;12.40;99.90
9965;DHT22;5023;53.554;9.964;2022-09-29T12:25:55;12.50;99.90
9965;DHT22;5023;53.554;9.964;2022-09-29T12:31:00;12.50;99.90
9965;DHT22;5023;53.554;9.964;2022-09-29T12:36:17;12.60;99.90
9965;DHT22;5023;53.554;9.964;2022-09-29T12:41:40;12.70;99.90
9965;DHT22;5023;53.554;9.964;2022-09-29T12:46:49;12.80;99.90
9965;DHT22;5023;53.554;9.964;2022-09-29T12:51:55;12.90;99.90
9965;DHT22;5023;53.554;9.964;2022-09-29T12:57:01;12.90;99.90
9965;DHT22;5023;53.554;9.964;2022-09-29T13:02:20;13.00;99.90
9965;DHT22;5023;53.554;9.964;2022-09-29T13:08:03;12.90;99.90
9965;DHT22;5023;53.554;9.964;2022-09-29T13:13:26;12.90;99.90
9965;DHT22;5023;53.554;9.964;2022-09-29T13:18:44;12.80;99.90
9965;DHT22;5023;53.554;9.964;2022-09-29T13:29:18;13.00;99.90
9965;DHT22;5023;53.554;9.964;2022-09-29T13:34:29;12.90;99.90
9965;DHT22;5023;53.554;9.964;2022-09-29T13:39:33;13.00;99.90
9965;DHT22;5023;53.554;9.964;2022-09-29T13:44:36;13.00;99.90
9965;DHT22;5023;53.554;9.964;2022-09-29T13:49:39;13.00;99.90
9965;DHT22;5023;53.554;9.964;2022-09-29T13:54:44;13.00;99.90
9965;DHT22;5023;53.554;9.964;2022-09-29T14:05:53;12.80;99.90
9965;DHT22;5023;53.554;9.964;2022-09-29T14:11:03;12.70;99.90
9965;DHT22;5023;53.554;9.964;2022-09-29T14:16:20;12.80;99.90
9965;DHT22;5023;53.554;9.964;2022-09-29T14:21:50;12.90;99.90
9965;DHT22;5023;53.554;9.964;2022-09-29T14:27:18;12.90;99.90
9965;DHT22;5023;53.554;9.964;2022-09-29T14:32:27;12.70;99.90
9965;DHT22;5023;53.554;9.964;2022-09-29T14:37:32;12.70;99.90
9965;DHT22;5023;53.554;9.964;2022-09-29T14:42:36;12.70;99.90
9965;DHT22;5023;53.554;9.964;2022-09-29T14:47:41;12.80;99.90
9965;DHT22;5023;53.554;9.964;2022-09-29T14:59:02;13.10;99.90
9965;DHT22;5023;53.554;9.964;2022-09-29T15:04:11;13.00;99.90
9965;DHT22;5023;53.554;9.964;2022-09-29T15:09:18;13.10;99.90
9965;DHT22;5023;53.554;9.964;2022-09-29T15:14:25;13.20;99.90
9965;DHT22;5023;53.554;9.964;2022-09-29T15:19:42;13.20;99.90
9965;DHT22;5023;53.554;9.964;2022-09-29T15:25:12;13.30;99.90
9965;DHT22;5023;53.554;9.964;2022-09-29T15:30:21;13.20;99.90
9965;DHT22;5023;53.554;9.964;2022-09-29T15:35:24;13.20;99.90
9965;DHT22;5023;53.554;9.964;2022-09-29T15:40:35;13.10;99.90
9965;DHT22;5023;53.554;9.964;2022-09-29T15:45:51;13.00;99.90
9965;DHT22;5023;53.554;9.964;2022-09-29T15:50:54;12.80;99.90
9965;DHT22;5023;53.554;9.964;2022-09-29T15:55:58;12.60;99.90
9965;DHT22;5023;53.554;9.964;2022-09-29T16:01:05;12.50;99.90
9965;DHT22;5023;53.554;9.964;2022-09-29T16:06:18;12.50;99.90
9965;DHT22;5023;53.554;9.964;2022-09-29T16:11:29;12.40;99.90
9965;DHT22;5023;53.554;9.964;2022-09-29T16:16:35;12.20;99.90
9965;DHT22;5023;53.554;9.964;2022-09-29T16:21:39;12.20;99.90
9965;DHT22;5023;53.554;9.964;2022-09-29T16:26:48;12.20;99.90
9965;DHT22;5023;53.554;9.964;2022-09-29T16:31:52;12.20;99.90
9965;DHT22;5023;53.554;9.964;2022-09-29T16:36:55;12.20;99.90
9965;DHT22;5023;53.554;9.964;2022-09-29T16:42:01;12.20;99.90
9965;DHT22;5023;53.554;9.964;2022-09-29T16:47:14;12.20;99.90
9965;DHT22;5023;53.554;9.964;2022-09-29T16:52:19;12.10;99.90
9965;DHT22;5023;53.554;9.964;2022-09-29T16:57:27;12.10;99.90
9965;DHT22;5023;53.554;9.964;2022-09-29T17:02:33;11.90;99.90
9965;DHT22;5023;53.554;9.964;2022-09-29T17:07:39;12.10;99.90
9965;DHT22;5023;53.554;9.964;2022-09-29T17:12:42;12.10;99.90
9965;DHT22;5023;53.554;9.964;2022-09-29T17:17:48;12.10;99.90
9965;DHT22;5023;53.554;9.964;2022-09-29T17:22:51;12.10;99.90
9965;DHT22;5023;53.554;9.964;2022-09-29T17:27:54;12.20;99.90
9965;DHT22;5023;53.554;9.964;2022-09-29T17:33:17;12.20;99.90
9965;DHT22;5023;53.554;9.964;2022-09-29T17:38:20;12.20;99.90
9965;DHT22;5023;53.554;9.964;2022-09-29T17:43:22;12.20;99.90
9965;DHT22;5023;53.554;9.964;2022-09-29T17:48:26;12.20;99.90
9965;DHT22;5023;53.554;9.964;2022-09-29T17:53:29;12.30;99.90
9965;DHT22;5023;53.554;9.964;2022-09-29T17:58:31;12.30;99.90
9965;DHT22;5023;53.554;9.964;2022-09-29T18:04:15;12.20;99.90
9965;DHT22;5023;53.554;9.964;2022-09-29T18:09:47;12.20;99.90
9965;DHT22;5023;53.554;9.964;2022-09-29T18:15:05;12.20;99.90
9965;DHT22;5023;53.554;9.964;2022-09-29T18:20:31;12.20;99.90
9965;DHT22;5023;53.554;9.964;2022-09-29T18:25:40;12.10;99.90
9965;DHT22;5023;53.554;9.964;2022-09-29T18:31:00;12.10;99.90
9965;DHT22;5023;53.554;9.964;2022-09-29T18:36:27;12.10;99.90
9965;DHT22;5023;53.554;9.964;2022-09-29T18:41:33;12.20;99.90
9965;DHT22;5023;53.554;9.964;2022-09-29T18:46:37;12.10;99.90
9965;DHT22;5023;53.554;9.964;2022-09-29T18:51:43;12.10;99.90
9965;DHT22;5023;53.554;9.964;2022-09-29T18:56:47;12.10;99.90
9965;DHT22;5023;53.554;9.964;2022-09-29T19:01:57;12.00;99.90
9965;DHT22;5023;53.554;9.964;2022-09-29T19:07:17;12.10;99.90
9965;DHT22;5023;53.554;9.964;2022-09-29T19:12:33;12.00;99.90
9965;DHT22;5023;53.554;9.964;2022-09-29T19:17:48;11.90;99.90
9965;DHT22;5023;53.554;9.964;2022-09-29T19:23:00;12.00;99.90
9965;DHT22;5023;53.554;9.964;2022-09-29T19:28:04;12.00;99.90
9965;DHT22;5023;53.554;9.964;2022-09-29T19:33:11;11.90;99.90
9965;DHT22;5023;53.554;9.964;2022-09-29T19:38:15;11.90;99.90
9965;DHT22;5023;53.554;9.964;2022-09-29T19:43:18;11.90;99.90
9965;DHT22;5023;53.554;9.964;2022-09-29T19:48:23;11.80;99.90
9965;DHT22;5023;53.554;9.964;2022-09-29T19:53:29;11.70;99.90
9965;DHT22;5023;53.554;9.964;2022-09-29T20:09:44;11.60;99.90
9965;DHT22;5023;53.554;9.964;2022-09-29T20:14:48;11.80;99.90
9965;DHT22;5023;53.554;9.964;2022-09-29T20:19:50;11.80;99.90
9965;DHT22;5023;53.554;9.964;2022-09-29T20:24:56;11.70;99.90
9965;DHT22;5023;53.554;9.964;2022-09-29T20:29:58;11.70;99.90
9965;DHT22;5023;53.554;9.964;2022-09-29T20:35:01;11.70;99.90
9965;DHT22;5023;53.554;9.964;2022-09-29T20:40:05;11.70;99.90
9965;DHT22;5023;53.554;9.964;2022-09-29T20:45:09;11.60;99.90
9965;DHT22;5023;53.554;9.964;2022-09-29T20:50:16;11.60;99.90
9965;DHT22;5023;53.554;9.964;2022-09-29T20:55:34;11.60;99.90
9965;DHT22;5023;53.554;9.964;2022-09-29T21:00:36;11.60;99.90
9965;DHT22;5023;53.554;9.964;2022-09-29T21:05:46;11.60;99.90
9965;DHT22;5023;53.554;9.964;2022-09-29T21:10:58;11.60;99.90
9965;DHT22;5023;53.554;9.964;2022-09-29T21:16:01;11.60;99.90
9965;DHT22;5023;53.554;9.964;2022-09-29T21:21:07;11.60;99.90
9965;DHT22;5023;53.554;9.964;2022-09-29T21:26:12;11.70;99.90
9965;DHT22;5023;53.554;9.964;2022-09-29T21:31:17;11.70;99.90
9965;DHT22;5023;53.554;9.964;2022-09-29T21:36:21;11.70;99.90
9965;DHT22;5023;53.554;9.964;2022-09-29T21:41:27;11.70;99.90
9965;DHT22;5023;53.554;9.964;2022-09-29T21:46:31;11.70;99.90
9965;DHT22;5023;53.554;9.964;2022-09-29T21:51:35;11.50;99.90
9965;DHT22;5023;53.554;9.964;2022-09-29T21:56:41;11.50;99.90
9965;DHT22;5023;53.554;9.964;2022-09-29T22:01:44;11.60;99.90
9965;DHT22;5023;53.554;9.964;2022-09-29T22:06:46;11.60;99.90
9965;DHT22;5023;53.554;9.964;2022-09-29T22:11:53;11.50;99.90
9965;DHT22;5023;53.554;9.964;2022-09-29T22:16:55;11.40;99.90
9965;DHT22;5023;53.554;9.964;2022-09-29T22:21:58;11.30;99.90
9965;DHT22;5023;53.554;9.964;2022-09-29T22:27:01;11.30;99.90
9965;DHT22;5023;53.554;9.964;2022-09-29T22:32:04;11.30;99.90
9965;DHT22;5023;53.554;9.964;2022-09-29T22:37:08;11.40;99.90
9965;DHT22;5023;53.554;9.964;2022-09-29T22:42:12;11.30;99.90
9965;DHT22;5023;53.554;9.964;2022-09-29T22:47:14;11.30;99.90
9965;DHT22;5023;53.554;9.964;2022-09-29T22:52:16;11.30;99.90
9965;DHT22;5023;53.554;9.964;2022-09-29T22:57:19;11.30;99.90
9965;DHT22;5023;53.554;9.964;2022-09-29T23:02:21;11.30;99.90
9965;DHT22;5023;53.554;9.964;2022-09-29T23:07:24;11.30;99.90
9965;DHT22;5023;53.554;9.964;2022-09-29T23:12:27;11.30;99.90
9965;DHT22;5023;53.554;9.964;2022-09-29T23:17:29;11.10;99.90
9965;DHT22;5023;53.554;9.964;2022-09-29T23:22:33;11.20;99.90
9965;DHT22;5023;53.554;9.964;2022-09-29T23:27:37;11.20;99.90
9965;DHT22;5023;53.554;9.964;2022-09-29T23:32:40;11.20;99.90
9965;DHT22;5023;53.554;9.964;2022-09-29T23:37:43;11.20;99.90
9965;DHT22;5023;53.554;9.964;2022-09-29T23:43:03;11.10;99.90
9965;DHT22;5023;53.554;9.964;2022-09-29T23:48:07;11.20;99.90
9965;DHT22;5023;53.554;9.964;2022-09-29T23:53:09;11.10;99.90
9965;DHT22;5023;53.554;9.964;2022-09-29T23:58:13;11.10;99.90
